Overview Statistics Trail Chart Weather Telemetry Raw packets
 

This is the latest recevied weather packets stored in our database for station/object YO8RBY-2. If no packets are shown the sender has not sent any weather packets the latest 10 day(s).

<< 1 2 3 4 5 6 7 >>
Time Temp. Humidity Pressure Rain* Wind** Luminosity Snow
1788459728 21.67° C 58% 976 hPa - - 0 W/m² -
1788457904 22.22° C 55% 976 hPa - - 0 W/m² -
1788456080 24.44° C 47% 976 hPa - - 0 W/m² -
1788454256 25.56° C 43% 975 hPa - - 0 W/m² -
1788452431 26.67° C 36% 975 hPa - - 0 W/m² -
1788450607 30° C 31% 975 hPa - - 0 W/m² -
1788448783 36.67° C 21% 974 hPa - - 0 W/m² -
1788446958 35.56° C 22% 975 hPa - - 0 W/m² -
1788445134 35° C 22% 975 hPa - - 0 W/m² -
1788443309 35.56° C 22% 974 hPa - - 0 W/m² -
1788441484 36.67° C 21% 975 hPa - - 0 W/m² -
1788439660 36.67° C 21% 975 hPa - - 0 W/m² -
1788437836 36.11° C 21% 975 hPa - - 0 W/m² -
1788436010 35° C 24% 976 hPa - - 0 W/m² -
1788434186 33.89° C 25% 976 hPa - - 0 W/m² -
1788432361 33.89° C 26% 976 hPa - - 0 W/m² -
1788430536 31.11° C 29% 977 hPa - - 0 W/m² -
1788428711 32.78° C 27% 977 hPa - - 0 W/m² -
1788426887 31.67° C 30% 977 hPa - - 0 W/m² -
1788425062 29.44° C 33% 977 hPa - - 0 W/m² -
1788423237 28.89° C 35% 978 hPa - - 0 W/m² -
1788421412 28.89° C 35% 978 hPa - - 0 W/m² -
1788419587 25.56° C 41% 978 hPa - - 0 W/m² -
1788293404 20.56° C 65% 977 hPa - - 0 W/m² -
1788291580 21.11° C 64% 977 hPa - - 0 W/m² -

* Rain since midnight (hover to see other rain measurements)
** Current wind speed in m/s (hover to see current wind gust speed)